createdAt,value
2023-01-13T00:00:02.011Z,11.6
2023-01-13T00:01:09.096Z,11.6
2023-01-13T00:02:00.849Z,11.6
2023-01-13T00:03:00.777Z,11.6
2023-01-13T00:04:00.778Z,11.6
2023-01-13T00:05:00.829Z,13.5
2023-01-13T00:06:00.791Z,13.5
2023-01-13T00:07:00.942Z,13.5
2023-01-13T00:08:00.865Z,13.5
2023-01-13T00:09:00.783Z,13.5
2023-01-13T00:10:00.948Z,13.5
2023-01-13T00:11:00.797Z,13.5
2023-01-13T00:12:00.777Z,13.5
2023-01-13T00:13:02.157Z,13.5
2023-01-13T00:14:00.768Z,13.5
2023-01-13T00:15:00.778Z,12.8
2023-01-13T00:16:03.474Z,12.8
2023-01-13T00:17:01.494Z,12.8
2023-01-13T00:18:00.761Z,12.8
2023-01-13T00:19:00.836Z,12.8
2023-01-13T00:20:00.847Z,12.8
2023-01-13T00:21:01.988Z,12.8
2023-01-13T00:22:00.788Z,12.8
2023-01-13T00:23:00.769Z,12.8
2023-01-13T00:24:00.838Z,12.8
2023-01-13T00:25:01.526Z,13.9
2023-01-13T00:26:03.229Z,13.9
2023-01-13T00:27:00.793Z,13.9
2023-01-13T00:28:00.777Z,13.9
2023-01-13T00:29:01.081Z,13.9
2023-01-13T00:30:01.078Z,13.9
2023-01-13T00:31:04.734Z,13.9
2023-01-13T00:32:00.964Z,13.9
2023-01-13T00:33:00.763Z,13.9
2023-01-13T00:34:00.983Z,13.9
2023-01-13T00:35:00.818Z,11.7
2023-01-13T00:36:01.567Z,11.7
2023-01-13T00:37:00.807Z,11.7
2023-01-13T00:38:00.789Z,11.7
2023-01-13T00:39:00.780Z,11.7
2023-01-13T00:40:00.786Z,11.7
2023-01-13T00:41:02.947Z,11.7
2023-01-13T00:42:00.797Z,11.7
2023-01-13T00:43:00.991Z,11.7
2023-01-13T00:44:00.781Z,11.7
2023-01-13T00:45:00.927Z,9.8
2023-01-13T00:46:01.469Z,9.8
2023-01-13T00:47:00.769Z,9.8
2023-01-13T00:48:00.771Z,9.8
2023-01-13T00:49:00.895Z,9.8
2023-01-13T00:50:00.770Z,9.8
2023-01-13T00:51:02.626Z,9.8
2023-01-13T00:52:00.764Z,9.8
2023-01-13T00:53:01.030Z,9.8
2023-01-13T00:54:00.973Z,9.8
2023-01-13T00:55:00.763Z,9.5
2023-01-13T00:56:00.737Z,9.5
2023-01-13T00:57:00.924Z,9.5
2023-01-13T00:58:01.326Z,9.5
2023-01-13T00:59:00.749Z,9.5
2023-01-13T01:00:00.892Z,9.5
2023-01-13T01:01:01.303Z,9.5
2023-01-13T01:02:00.996Z,9.5
2023-01-13T01:03:00.771Z,9.5
2023-01-13T01:04:00.805Z,9.5
2023-01-13T01:05:00.995Z,10.9
2023-01-13T01:06:05.980Z,10.9
2023-01-13T01:07:00.747Z,10.9
2023-01-13T01:08:00.854Z,10.9
2023-01-13T01:09:01.199Z,10.9
2023-01-13T01:10:00.749Z,10.9
2023-01-13T01:11:01.743Z,10.9
2023-01-13T01:12:00.971Z,10.9
2023-01-13T01:13:00.768Z,10.9
2023-01-13T01:14:02.012Z,10.9
2023-01-13T01:15:00.837Z,12.0
2023-01-13T01:16:03.174Z,12.0
2023-01-13T01:17:00.760Z,12.0
2023-01-13T01:18:00.753Z,12.0
2023-01-13T01:19:00.785Z,12.0
2023-01-13T01:20:00.967Z,12.0
2023-01-13T01:21:01.301Z,12.0
2023-01-13T01:22:00.744Z,12.0
2023-01-13T01:23:00.753Z,12.0
2023-01-13T01:24:01.987Z,12.0
2023-01-13T01:25:00.781Z,9.9
2023-01-13T01:35:01.103Z,10.2
2023-01-13T01:36:01.228Z,10.2
2023-01-13T01:37:00.761Z,10.2
2023-01-13T01:38:00.752Z,10.2
2023-01-13T01:39:00.897Z,10.2
2023-01-13T01:40:00.765Z,10.2
2023-01-13T01:41:00.766Z,10.2
2023-01-13T01:42:00.803Z,10.2
2023-01-13T01:43:00.763Z,10.2
2023-01-13T01:44:04.093Z,10.2
2023-01-13T01:45:09.553Z,7.7
2023-01-13T01:46:01.142Z,7.7
2023-01-13T01:47:00.841Z,7.7
2023-01-13T01:48:03.253Z,7.7
2023-01-13T01:49:10.623Z,7.7
2023-01-13T01:50:02.467Z,7.7
2023-01-13T01:51:01.071Z,7.7
2023-01-13T01:52:05.530Z,7.7
2023-01-13T01:53:06.296Z,7.7
2023-01-13T01:54:01.589Z,7.7
2023-01-13T01:55:05.257Z,8.3
2023-01-13T01:56:01.114Z,8.3
2023-01-13T01:57:00.962Z,8.3
2023-01-13T01:58:04.709Z,8.3
2023-01-13T01:59:00.935Z,8.3
2023-01-13T02:00:01.100Z,8.3
2023-01-13T02:01:00.893Z,8.3
2023-01-13T02:02:01.143Z,8.3
2023-01-13T02:03:02.320Z,8.3
2023-01-13T02:04:02.899Z,8.3
2023-01-13T02:05:01.115Z,9.6
2023-01-13T02:06:01.071Z,9.6
2023-01-13T02:07:02.529Z,9.6
2023-01-13T02:08:01.415Z,9.6
2023-01-13T02:09:00.783Z,9.6
2023-01-13T02:10:02.682Z,9.6
2023-01-13T02:11:00.740Z,9.6
2023-01-13T02:12:00.757Z,9.6
2023-01-13T02:13:03.301Z,9.6
2023-01-13T02:14:00.874Z,9.6
2023-01-13T02:15:00.722Z,8.1
2023-01-13T02:16:04.499Z,8.1
2023-01-13T02:17:10.622Z,8.1
2023-01-13T02:18:10.620Z,8.1
2023-01-13T02:19:10.622Z,8.1
2023-01-13T02:20:10.616Z,8.1
2023-01-13T02:21:10.683Z,8.1
2023-01-13T02:22:10.621Z,8.1
2023-01-13T02:23:00.744Z,8.1
2023-01-13T02:24:10.614Z,8.1
2023-01-13T02:25:01.742Z,9.4
2023-01-13T02:26:08.109Z,9.4
2023-01-13T02:27:04.067Z,9.4
2023-01-13T02:28:10.611Z,9.4
2023-01-13T02:29:09.241Z,9.4
2023-01-13T02:30:01.822Z,9.4
2023-01-13T02:31:01.752Z,9.4
2023-01-13T02:32:08.071Z,9.4
2023-01-13T02:33:10.614Z,9.4
2023-01-13T02:34:06.825Z,9.4
2023-01-13T02:35:10.611Z,9.9
2023-01-13T02:36:01.764Z,9.9
2023-01-13T02:37:01.350Z,9.9
2023-01-13T02:38:01.868Z,9.9
2023-01-13T02:39:04.181Z,9.9
2023-01-13T02:40:05.011Z,9.9
2023-01-13T02:41:06.346Z,9.9
2023-01-13T02:42:10.617Z,9.9
2023-01-13T02:43:03.369Z,9.9
2023-01-13T02:44:02.576Z,9.9
2023-01-13T02:45:03.487Z,7.6
2023-01-13T02:46:04.095Z,7.6
2023-01-13T02:47:07.127Z,7.6
2023-01-13T02:48:03.741Z,7.6
2023-01-13T02:49:03.946Z,7.6
2023-01-13T02:50:02.795Z,7.6
2023-01-13T02:51:05.244Z,7.6
2023-01-13T02:52:05.889Z,7.6
2023-01-13T02:53:04.464Z,7.6
2023-01-13T02:54:04.027Z,7.6
2023-01-13T02:55:04.511Z,7.8
2023-01-13T02:56:02.255Z,7.8
2023-01-13T02:57:01.630Z,7.8
2023-01-13T02:58:03.494Z,7.8
2023-01-13T02:59:01.042Z,7.8
2023-01-13T03:00:02.676Z,7.8
2023-01-13T03:01:01.058Z,7.8
2023-01-13T03:02:01.229Z,7.8
2023-01-13T03:03:00.857Z,7.8
2023-01-13T03:04:10.664Z,7.8
2023-01-13T03:05:00.847Z,9.2
2023-01-13T03:06:10.615Z,9.2
2023-01-13T03:07:06.379Z,9.2
2023-01-13T03:08:10.721Z,9.2
2023-01-13T03:09:05.795Z,9.2
2023-01-13T03:10:09.381Z,9.2
2023-01-13T03:11:04.778Z,9.2
2023-01-13T03:12:00.718Z,9.2
2023-01-13T03:13:02.004Z,9.2
2023-01-13T03:14:10.330Z,9.2
2023-01-13T03:15:10.760Z,6.2
2023-01-13T03:16:10.693Z,6.2
2023-01-13T03:17:10.644Z,6.2
2023-01-13T03:18:07.919Z,6.2
2023-01-13T03:19:00.722Z,6.2
2023-01-13T03:20:00.748Z,6.2
2023-01-13T03:21:06.710Z,6.2
2023-01-13T03:22:01.812Z,6.2
2023-01-13T03:23:01.743Z,6.2
2023-01-13T03:24:05.677Z,6.2
2023-01-13T03:25:01.770Z,9.2
2023-01-13T03:26:04.084Z,9.2
2023-01-13T03:27:04.752Z,9.2
2023-01-13T03:28:04.178Z,9.2
2023-01-13T03:29:08.093Z,9.2
2023-01-13T03:30:01.781Z,9.2
2023-01-13T03:31:04.132Z,9.2
2023-01-13T03:32:07.394Z,9.2
2023-01-13T03:33:04.676Z,9.2
2023-01-13T03:34:03.461Z,9.2
2023-01-13T03:35:01.766Z,8.4
2023-01-13T03:36:03.243Z,8.4
2023-01-13T03:37:02.628Z,8.4
2023-01-13T03:38:05.267Z,8.4
2023-01-13T03:39:06.869Z,8.4
2023-01-13T03:40:05.580Z,8.4
2023-01-13T03:41:04.938Z,8.4
2023-01-13T03:42:04.552Z,8.4
2023-01-13T03:43:05.371Z,8.4
2023-01-13T03:44:05.578Z,8.4
2023-01-13T03:45:11.286Z,7.4
2023-01-13T03:46:03.829Z,7.4
2023-01-13T03:47:04.106Z,7.4
2023-01-13T03:48:05.208Z,7.4
2023-01-13T03:49:02.429Z,7.4
2023-01-13T03:50:05.455Z,7.4
2023-01-13T03:51:04.876Z,7.4
2023-01-13T03:52:03.249Z,7.4
2023-01-13T03:53:06.159Z,7.4
2023-01-13T03:54:03.995Z,7.4
2023-01-13T03:55:04.194Z,6.3
2023-01-13T03:56:06.484Z,6.3
2023-01-13T03:57:06.120Z,6.3
2023-01-13T03:58:04.911Z,6.3
2023-01-13T03:59:02.600Z,6.3
2023-01-13T04:00:02.291Z,6.3
2023-01-13T04:01:10.812Z,6.3
2023-01-13T04:02:04.284Z,6.3
2023-01-13T04:03:06.179Z,6.3
2023-01-13T04:04:06.317Z,6.3
2023-01-13T04:05:02.565Z,8.6
2023-01-13T04:06:09.486Z,8.6
2023-01-13T04:07:00.759Z,8.6
2023-01-13T04:08:08.319Z,8.6
2023-01-13T04:09:05.578Z,8.6
2023-01-13T04:10:02.579Z,8.6
2023-01-13T04:11:05.325Z,8.6
2023-01-13T04:12:06.151Z,8.6
2023-01-13T04:13:03.108Z,8.6
2023-01-13T04:14:02.406Z,8.6
2023-01-13T04:15:00.968Z,10.2
2023-01-13T04:16:00.980Z,10.2
2023-01-13T04:17:00.887Z,10.2
2023-01-13T04:18:10.652Z,10.2
2023-01-13T04:19:00.743Z,10.2
2023-01-13T04:20:00.754Z,10.2
2023-01-13T04:21:00.843Z,10.2
2023-01-13T04:22:01.112Z,10.2
2023-01-13T04:23:01.009Z,10.2
2023-01-13T04:24:00.784Z,10.2
2023-01-13T04:25:00.771Z,11.5
2023-01-13T04:26:00.788Z,11.5
2023-01-13T04:27:00.888Z,11.5
2023-01-13T04:28:00.986Z,11.5
2023-01-13T04:29:00.745Z,11.5
2023-01-13T04:30:00.787Z,11.5
2023-01-13T04:31:00.837Z,11.5
2023-01-13T04:32:00.743Z,11.5
2023-01-13T04:33:01.014Z,11.5
2023-01-13T04:34:00.778Z,11.5
2023-01-13T04:35:00.784Z,8.1
2023-01-13T04:36:00.783Z,8.1
2023-01-13T04:37:00.728Z,8.1
2023-01-13T04:38:01.651Z,8.1
2023-01-13T04:39:01.102Z,8.1
2023-01-13T04:40:00.741Z,8.1
2023-01-13T04:41:00.771Z,8.1
2023-01-13T04:42:00.811Z,8.1
2023-01-13T04:43:00.918Z,8.1
2023-01-13T04:44:01.006Z,8.1
2023-01-13T04:45:00.849Z,7.7
2023-01-13T04:46:00.838Z,7.7
2023-01-13T04:47:01.476Z,7.7
2023-01-13T04:48:00.793Z,7.7
2023-01-13T04:49:00.765Z,7.7
2023-01-13T04:50:00.793Z,7.7
2023-01-13T04:51:00.760Z,7.7
2023-01-13T04:52:00.755Z,7.7
2023-01-13T04:53:00.795Z,7.7
2023-01-13T04:54:00.732Z,7.7
2023-01-13T04:55:00.915Z,7.2
2023-01-13T04:56:00.819Z,7.2
2023-01-13T04:57:00.751Z,7.2
2023-01-13T04:58:01.879Z,7.2
2023-01-13T04:59:00.752Z,7.2
2023-01-13T05:00:00.794Z,7.2
2023-01-13T05:01:00.840Z,7.2
2023-01-13T05:02:00.848Z,7.2
2023-01-13T05:03:01.207Z,7.2
2023-01-13T05:04:00.799Z,7.2
2023-01-13T05:05:01.604Z,8.8
2023-01-13T05:06:00.759Z,8.8
2023-01-13T05:07:00.783Z,8.8
2023-01-13T05:08:00.799Z,8.8
2023-01-13T05:09:00.772Z,8.8
2023-01-13T05:10:00.810Z,8.8
2023-01-13T05:11:00.776Z,8.8
2023-01-13T05:12:00.753Z,8.8
2023-01-13T05:13:00.967Z,8.8
2023-01-13T05:14:01.006Z,8.8
2023-01-13T05:15:00.765Z,9.2
2023-01-13T05:16:01.068Z,9.2
2023-01-13T05:17:00.789Z,9.2
2023-01-13T05:18:01.096Z,9.2
2023-01-13T05:19:00.814Z,9.2
2023-01-13T05:20:00.871Z,9.2
2023-01-13T05:21:00.782Z,9.2
2023-01-13T05:22:01.298Z,9.2
2023-01-13T05:23:00.768Z,9.2
2023-01-13T05:24:00.860Z,9.2
2023-01-13T05:25:00.759Z,9.2
2023-01-13T05:26:01.084Z,9.2
2023-01-13T05:27:00.889Z,9.2
2023-01-13T05:28:00.790Z,9.2
2023-01-13T05:29:00.768Z,9.2
2023-01-13T05:30:00.938Z,9.2
2023-01-13T05:31:00.862Z,9.2
2023-01-13T05:32:00.783Z,9.2
2023-01-13T05:33:00.784Z,9.2
2023-01-13T05:34:00.804Z,9.2
2023-01-13T05:35:01.016Z,10.3
2023-01-13T05:36:01.237Z,10.3
2023-01-13T05:37:00.775Z,10.3
2023-01-13T05:38:00.884Z,10.3
2023-01-13T05:39:00.744Z,10.3
2023-01-13T05:40:00.842Z,10.3
2023-01-13T05:41:00.899Z,10.3
2023-01-13T05:42:00.749Z,10.3
2023-01-13T05:43:05.620Z,10.3
2023-01-13T05:44:00.790Z,10.3
2023-01-13T05:45:00.860Z,10.3
2023-01-13T05:46:00.849Z,8.2
2023-01-13T05:47:00.792Z,8.2
2023-01-13T05:48:00.744Z,8.2
2023-01-13T05:49:00.946Z,8.2
2023-01-13T05:50:00.936Z,8.2
2023-01-13T05:51:01.664Z,8.2
2023-01-13T05:52:00.774Z,8.2
2023-01-13T05:53:01.385Z,8.2
2023-01-13T05:54:00.794Z,8.2
2023-01-13T05:55:00.807Z,8.2
2023-01-13T05:56:04.306Z,8.8
2023-01-13T05:57:00.772Z,8.8
2023-01-13T05:58:00.805Z,8.8
2023-01-13T05:59:00.766Z,8.8
2023-01-13T06:00:01.897Z,8.8
2023-01-13T06:01:01.946Z,8.8
2023-01-13T06:02:00.907Z,8.8
2023-01-13T06:03:00.873Z,8.8
2023-01-13T06:04:00.760Z,8.8
2023-01-13T06:05:00.775Z,8.8
2023-01-13T06:06:00.879Z,9.9
2023-01-13T06:07:00.796Z,9.9
2023-01-13T06:08:01.850Z,9.9
2023-01-13T06:09:00.776Z,9.9
2023-01-13T06:10:00.753Z,9.9
2023-01-13T06:11:00.908Z,9.9
2023-01-13T06:12:00.768Z,9.9
2023-01-13T06:13:01.267Z,9.9
2023-01-13T06:14:00.781Z,9.9
2023-01-13T06:15:00.790Z,9.9
2023-01-13T06:16:00.860Z,9.4
2023-01-13T06:17:00.750Z,9.4
2023-01-13T06:18:02.709Z,9.4
2023-01-13T06:19:00.768Z,9.4
2023-01-13T06:20:00.823Z,9.4
2023-01-13T06:21:00.794Z,9.4
2023-01-13T06:22:07.494Z,9.4
2023-01-13T06:23:00.763Z,9.4
2023-01-13T06:24:00.786Z,9.4
2023-01-13T06:25:00.755Z,9.4
2023-01-13T06:26:10.625Z,8.4
2023-01-13T06:27:00.854Z,8.4
2023-01-13T06:28:00.967Z,8.4
2023-01-13T06:29:00.911Z,8.4
2023-01-13T06:30:00.781Z,8.4
2023-01-13T06:31:02.877Z,8.4
2023-01-13T06:32:02.732Z,8.4
2023-01-13T06:33:03.127Z,8.4
2023-01-13T06:34:05.021Z,8.4
2023-01-13T06:35:04.766Z,8.4
2023-01-13T06:36:03.370Z,9.7
2023-01-13T06:37:01.670Z,9.7
2023-01-13T06:38:02.474Z,9.7
2023-01-13T06:39:01.835Z,9.7
2023-01-13T06:40:01.687Z,9.7
2023-01-13T06:41:00.907Z,9.7
2023-01-13T06:42:02.354Z,9.7
2023-01-13T06:43:01.872Z,9.7
2023-01-13T06:44:01.061Z,9.7
2023-01-13T06:45:00.876Z,9.7
2023-01-13T06:46:01.184Z,13.6
2023-01-13T06:47:00.873Z,13.6
2023-01-13T06:48:00.800Z,13.6
2023-01-13T06:49:00.743Z,13.6
2023-01-13T06:50:00.779Z,13.6
2023-01-13T06:51:01.567Z,13.6
2023-01-13T06:52:00.804Z,13.6
2023-01-13T06:53:01.206Z,13.6
2023-01-13T06:54:00.757Z,13.6
2023-01-13T06:55:01.125Z,13.6
2023-01-13T06:56:00.780Z,12.9
2023-01-13T06:57:00.992Z,12.9
2023-01-13T06:58:01.013Z,12.9
2023-01-13T06:59:00.796Z,12.9
2023-01-13T07:00:00.885Z,12.9
2023-01-13T07:01:00.889Z,12.9
2023-01-13T07:02:01.781Z,12.9
2023-01-13T07:03:10.627Z,12.9
2023-01-13T07:04:00.780Z,12.9
2023-01-13T07:05:00.773Z,12.9
2023-01-13T07:06:00.895Z,12.5
2023-01-13T07:07:00.755Z,12.5
2023-01-13T07:08:00.831Z,12.5
2023-01-13T07:09:00.776Z,12.5
2023-01-13T07:10:00.745Z,12.5
2023-01-13T07:11:01.650Z,12.5
2023-01-13T07:12:01.045Z,12.5
2023-01-13T07:13:01.228Z,12.5
2023-01-13T07:14:00.790Z,12.5
2023-01-13T07:15:00.792Z,12.5
2023-01-13T07:16:02.180Z,11.8
2023-01-13T07:17:00.979Z,11.8
2023-01-13T07:18:01.281Z,11.8
2023-01-13T07:19:00.846Z,11.8
2023-01-13T07:20:00.801Z,11.8
2023-01-13T07:21:02.652Z,11.8
2023-01-13T07:22:00.907Z,11.8
2023-01-13T07:23:00.772Z,11.8
2023-01-13T07:24:00.756Z,11.8
2023-01-13T07:25:00.834Z,11.8
2023-01-13T07:26:00.771Z,14.1
2023-01-13T07:27:00.750Z,14.1
2023-01-13T07:28:00.875Z,14.1
2023-01-13T07:29:00.782Z,14.1
2023-01-13T07:30:01.013Z,14.1
2023-01-13T07:31:00.847Z,14.1
2023-01-13T07:32:00.830Z,14.1
2023-01-13T07:33:00.773Z,14.1
2023-01-13T07:34:00.806Z,14.1
2023-01-13T07:35:00.770Z,14.1
2023-01-13T07:36:01.864Z,16.0
2023-01-13T07:37:01.000Z,16.0
2023-01-13T07:38:00.767Z,16.0
2023-01-13T07:39:01.376Z,16.0
2023-01-13T07:40:01.585Z,16.0
2023-01-13T07:41:01.056Z,16.0
2023-01-13T07:42:00.819Z,16.0
2023-01-13T07:43:00.950Z,16.0
2023-01-13T07:44:03.256Z,16.0
2023-01-13T07:45:00.751Z,16.0
2023-01-13T07:46:02.425Z,15.2
2023-01-13T07:47:00.802Z,15.2
2023-01-13T07:48:00.858Z,15.2
2023-01-13T07:49:00.795Z,15.2
2023-01-13T07:50:01.054Z,15.2
2023-01-13T07:51:01.698Z,15.2
2023-01-13T07:52:00.999Z,15.2
2023-01-13T07:53:00.797Z,15.2
2023-01-13T07:54:00.837Z,15.2
2023-01-13T07:55:00.739Z,15.2
2023-01-13T07:56:01.406Z,15.8
2023-01-13T07:57:00.764Z,15.8
2023-01-13T07:58:00.747Z,15.8
2023-01-13T07:59:01.133Z,15.8
2023-01-13T08:00:01.213Z,15.8
2023-01-13T08:01:07.823Z,15.8
2023-01-13T08:02:01.075Z,15.8
2023-01-13T08:03:00.823Z,15.8
2023-01-13T08:04:00.804Z,15.8
2023-01-13T08:05:00.866Z,15.8
2023-01-13T08:06:01.139Z,17.1
2023-01-13T08:07:00.800Z,17.1
2023-01-13T08:08:00.932Z,17.1
2023-01-13T08:09:00.798Z,17.1
2023-01-13T08:10:01.304Z,17.1
2023-01-13T08:11:01.443Z,17.1
2023-01-13T08:12:00.964Z,17.1
2023-01-13T08:13:00.793Z,17.1
2023-01-13T08:14:01.009Z,17.1
2023-01-13T08:15:00.788Z,17.1
2023-01-13T08:16:03.112Z,16.0
2023-01-13T08:17:00.770Z,16.0
2023-01-13T08:18:00.811Z,16.0
2023-01-13T08:19:00.826Z,16.0
2023-01-13T08:20:01.036Z,16.0
2023-01-13T08:21:02.100Z,16.0
2023-01-13T08:22:01.013Z,16.0
2023-01-13T08:23:01.227Z,16.0
2023-01-13T08:24:00.753Z,16.0
2023-01-13T08:25:00.854Z,16.0
2023-01-13T08:26:03.732Z,15.7
2023-01-13T08:27:00.775Z,15.7
2023-01-13T08:28:00.817Z,15.7
2023-01-13T08:29:00.772Z,15.7
2023-01-13T08:30:00.795Z,15.7
2023-01-13T08:31:01.764Z,15.7
2023-01-13T08:32:00.748Z,15.7
2023-01-13T08:33:00.856Z,15.7
2023-01-13T08:34:00.982Z,15.7
2023-01-13T08:35:00.772Z,15.7
2023-01-13T08:36:02.974Z,14.0
2023-01-13T08:37:00.799Z,14.0
2023-01-13T08:38:00.781Z,14.0
2023-01-13T08:39:00.868Z,14.0
2023-01-13T08:40:00.786Z,14.0
2023-01-13T08:41:06.774Z,14.0
2023-01-13T08:42:01.362Z,14.0
2023-01-13T08:43:00.763Z,14.0
2023-01-13T08:44:00.752Z,14.0
2023-01-13T08:45:00.951Z,14.0
2023-01-13T08:46:01.579Z,12.0
2023-01-13T08:47:02.745Z,12.0
2023-01-13T08:48:01.058Z,12.0
2023-01-13T08:49:01.041Z,12.0
2023-01-13T08:50:00.784Z,12.0
2023-01-13T08:51:02.545Z,12.0
2023-01-13T08:52:00.832Z,12.0
2023-01-13T08:53:00.767Z,12.0
2023-01-13T08:54:00.733Z,12.0
2023-01-13T08:55:00.799Z,12.0
2023-01-13T08:56:00.967Z,9.8
2023-01-13T08:57:00.945Z,9.8
2023-01-13T08:58:14.477Z,9.8
2023-01-13T08:59:01.064Z,9.8
2023-01-13T09:00:01.006Z,9.8
2023-01-13T09:01:04.598Z,9.8
2023-01-13T09:02:01.011Z,9.8
2023-01-13T09:03:00.882Z,9.8
2023-01-13T09:04:00.883Z,9.8
2023-01-13T09:05:01.213Z,9.8
2023-01-13T09:06:00.978Z,6.9
2023-01-13T09:07:01.100Z,6.9
2023-01-13T09:08:00.767Z,6.9
2023-01-13T09:09:00.830Z,6.9
2023-01-13T09:10:01.069Z,6.9
2023-01-13T09:11:00.930Z,6.9
2023-01-13T09:12:00.774Z,6.9
2023-01-13T09:13:00.802Z,6.9
2023-01-13T09:14:03.211Z,6.9
2023-01-13T09:15:01.244Z,6.9
2023-01-13T09:16:00.815Z,5.6
2023-01-13T09:17:00.961Z,5.6
2023-01-13T09:18:00.960Z,5.6
2023-01-13T09:19:00.754Z,5.6
2023-01-13T09:20:00.746Z,5.6
2023-01-13T09:21:00.811Z,5.6
2023-01-13T09:22:00.885Z,5.6
2023-01-13T09:23:00.874Z,5.6
2023-01-13T09:24:00.851Z,5.6
2023-01-13T09:25:00.786Z,5.6
2023-01-13T09:26:00.754Z,4.8
2023-01-13T09:27:00.813Z,4.8
2023-01-13T09:28:00.768Z,4.8
2023-01-13T09:29:00.926Z,4.8
2023-01-13T09:30:00.777Z,4.8
2023-01-13T09:31:00.819Z,4.8
2023-01-13T09:32:00.788Z,4.8
2023-01-13T09:33:01.329Z,4.8
2023-01-13T09:34:01.461Z,4.8
2023-01-13T09:35:00.796Z,4.8
2023-01-13T09:36:00.793Z,6.2
2023-01-13T09:37:01.142Z,6.2
2023-01-13T09:38:00.790Z,6.2
2023-01-13T09:39:00.857Z,6.2
2023-01-13T09:40:06.354Z,6.2
2023-01-13T09:41:00.852Z,6.2
2023-01-13T09:42:03.898Z,6.2
2023-01-13T09:43:04.501Z,6.2
2023-01-13T09:44:01.648Z,6.2
2023-01-13T09:45:05.415Z,6.2
2023-01-13T09:46:04.559Z,5.8
2023-01-13T09:47:02.617Z,5.8
2023-01-13T09:48:05.094Z,5.8
2023-01-13T09:49:01.250Z,5.8
2023-01-13T09:50:07.220Z,5.8
2023-01-13T09:51:10.693Z,5.8
2023-01-13T09:52:04.292Z,5.8
2023-01-13T09:53:00.879Z,5.8
2023-01-13T09:54:05.930Z,5.8
2023-01-13T09:55:01.799Z,5.8
2023-01-13T09:56:00.814Z,6.4
2023-01-13T09:57:01.039Z,6.4
2023-01-13T09:58:01.598Z,6.4
2023-01-13T09:59:00.765Z,6.4
2023-01-13T10:00:01.131Z,6.4
2023-01-13T10:01:00.796Z,6.4
2023-01-13T10:02:10.625Z,6.4
2023-01-13T10:03:00.763Z,6.4
2023-01-13T10:04:03.466Z,6.4
2023-01-13T10:05:03.578Z,6.4
2023-01-13T10:06:10.650Z,7.6
2023-01-13T10:07:01.541Z,7.6
2023-01-13T10:08:04.407Z,7.6
2023-01-13T10:09:01.059Z,7.6
2023-01-13T10:10:01.870Z,7.6
2023-01-13T10:11:04.526Z,7.6
2023-01-13T10:12:01.445Z,7.6
2023-01-13T10:13:01.703Z,7.6
2023-01-13T10:14:02.362Z,7.6
2023-01-13T10:15:00.878Z,7.6
2023-01-13T10:16:10.784Z,7.5
2023-01-13T10:17:01.852Z,7.5
2023-01-13T10:18:10.648Z,7.5
2023-01-13T10:19:00.768Z,7.5
2023-01-13T10:20:10.637Z,7.5
2023-01-13T10:21:06.835Z,7.5
2023-01-13T10:22:10.805Z,7.5
2023-01-13T10:23:10.634Z,7.5
2023-01-13T10:24:02.761Z,7.5
2023-01-13T10:25:01.894Z,7.5
2023-01-13T10:26:10.707Z,13.1
2023-01-13T10:27:04.453Z,13.1
2023-01-13T10:28:01.931Z,13.1
2023-01-13T10:29:00.882Z,13.1
2023-01-13T10:30:10.647Z,13.1
2023-01-13T10:31:04.180Z,13.1
2023-01-13T10:32:00.802Z,13.1
2023-01-13T10:33:05.314Z,13.1
2023-01-13T10:34:02.078Z,13.1
2023-01-13T10:35:00.763Z,13.1
2023-01-13T10:36:01.828Z,13.8
2023-01-13T10:37:00.735Z,13.8
2023-01-13T10:38:00.788Z,13.8
2023-01-13T10:39:09.723Z,13.8
2023-01-13T10:40:01.291Z,13.8
2023-01-13T10:41:02.729Z,13.8
2023-01-13T10:42:01.620Z,13.8
2023-01-13T10:43:04.618Z,13.8
2023-01-13T10:44:03.942Z,13.8
2023-01-13T10:45:01.332Z,13.8
2023-01-13T10:46:03.931Z,5.7
2023-01-13T10:47:00.751Z,5.7
2023-01-13T10:48:04.311Z,5.7
2023-01-13T10:49:02.468Z,5.7
2023-01-13T10:50:04.181Z,5.7
2023-01-13T10:51:10.661Z,5.7
2023-01-13T10:52:01.428Z,5.7
2023-01-13T10:53:02.614Z,5.7
2023-01-13T10:54:02.063Z,5.7
2023-01-13T10:55:00.876Z,5.7
2023-01-13T10:56:02.493Z,18.9
2023-01-13T10:57:10.675Z,18.9
2023-01-13T10:58:10.645Z,18.9
2023-01-13T10:59:10.666Z,18.9
2023-01-13T11:00:02.281Z,18.9
2023-01-13T11:01:03.851Z,18.9
2023-01-13T11:02:05.597Z,18.9
2023-01-13T11:03:10.671Z,18.9
2023-01-13T11:04:00.780Z,18.9
2023-01-13T11:05:02.811Z,18.9
2023-01-13T11:06:01.166Z,16.8
2023-01-13T11:07:02.194Z,16.8
2023-01-13T11:08:00.780Z,16.8
2023-01-13T11:09:00.827Z,16.8
2023-01-13T11:10:08.142Z,16.8
2023-01-13T11:11:00.812Z,16.8
2023-01-13T11:12:00.806Z,16.8
2023-01-13T11:13:04.344Z,16.8
2023-01-13T11:14:02.063Z,16.8
2023-01-13T11:15:03.240Z,16.8
2023-01-13T11:16:04.518Z,18.6
2023-01-13T11:17:10.626Z,18.6
2023-01-13T11:18:02.423Z,18.6
2023-01-13T11:19:05.578Z,18.6
2023-01-13T11:20:10.672Z,18.6
2023-01-13T11:21:03.774Z,18.6
2023-01-13T11:22:08.407Z,18.6
2023-01-13T11:23:04.239Z,18.6
2023-01-13T11:24:10.792Z,18.6
2023-01-13T11:25:02.250Z,18.6
2023-01-13T11:26:03.324Z,19.2
2023-01-13T11:27:03.339Z,19.2
2023-01-13T11:28:05.161Z,19.2
2023-01-13T11:29:09.461Z,19.2
2023-01-13T11:30:08.786Z,19.2
2023-01-13T11:31:07.518Z,19.2
2023-01-13T11:32:10.668Z,19.2
2023-01-13T11:33:10.651Z,19.2
2023-01-13T11:34:10.693Z,19.2
2023-01-13T11:35:03.367Z,19.2
2023-01-13T11:36:07.405Z,15.6
2023-01-13T11:37:06.234Z,15.6
2023-01-13T11:38:05.568Z,15.6
2023-01-13T11:39:10.684Z,15.6
2023-01-13T11:40:10.685Z,15.6
2023-01-13T11:41:07.748Z,15.6
2023-01-13T11:42:02.314Z,15.6
2023-01-13T11:43:05.806Z,15.6
2023-01-13T11:44:10.665Z,15.6
2023-01-13T11:45:10.629Z,15.6
2023-01-13T11:46:00.956Z,13.1
2023-01-13T11:47:00.871Z,13.1
2023-01-13T11:48:01.589Z,13.1
2023-01-13T11:49:01.745Z,13.1
2023-01-13T11:50:01.562Z,13.1
2023-01-13T11:51:07.377Z,13.1
2023-01-13T11:52:10.653Z,13.1
2023-01-13T11:53:10.809Z,13.1
2023-01-13T11:54:01.794Z,13.1
2023-01-13T11:55:08.849Z,13.1
2023-01-13T11:56:10.651Z,11.0
2023-01-13T11:57:10.667Z,11.0
2023-01-13T11:58:10.722Z,11.0
2023-01-13T11:59:08.184Z,11.0
2023-01-13T12:00:10.657Z,11.0
2023-01-13T12:01:10.692Z,11.0
2023-01-13T12:02:01.845Z,11.0
2023-01-13T12:03:04.129Z,11.0
2023-01-13T12:04:09.534Z,11.0
2023-01-13T12:05:01.910Z,11.0
2023-01-13T12:06:06.082Z,9.4
2023-01-13T12:07:01.792Z,9.4
2023-01-13T12:08:00.751Z,9.4
2023-01-13T12:09:09.721Z,9.4
2023-01-13T12:10:13.517Z,9.4
2023-01-13T12:11:01.771Z,9.4
2023-01-13T12:12:06.063Z,9.4
2023-01-13T12:13:10.633Z,9.4
2023-01-13T12:14:08.358Z,9.4
2023-01-13T12:15:04.248Z,9.4
2023-01-13T12:16:10.703Z,12.4
2023-01-13T12:17:03.648Z,12.4
2023-01-13T12:18:00.767Z,12.4
2023-01-13T12:19:10.651Z,12.4
2023-01-13T12:20:10.689Z,12.4
2023-01-13T12:21:04.320Z,12.4
2023-01-13T12:22:01.815Z,12.4
2023-01-13T12:23:03.117Z,12.4
2023-01-13T12:24:10.628Z,12.4
2023-01-13T12:25:04.703Z,12.4
2023-01-13T12:26:05.366Z,11.6
2023-01-13T12:27:04.973Z,11.6
2023-01-13T12:28:10.621Z,11.6
2023-01-13T12:29:04.978Z,11.6
2023-01-13T12:30:02.445Z,11.6
2023-01-13T12:31:01.613Z,11.6
2023-01-13T12:32:02.819Z,11.6
2023-01-13T12:33:05.741Z,11.6
2023-01-13T12:34:10.622Z,11.6
2023-01-13T12:35:07.602Z,11.6
2023-01-13T12:36:09.809Z,11.9
2023-01-13T12:37:00.765Z,11.9
2023-01-13T12:38:07.097Z,11.9
2023-01-13T12:39:10.631Z,11.9
2023-01-13T12:40:10.677Z,11.9
2023-01-13T12:41:00.765Z,11.9
2023-01-13T12:42:10.651Z,11.9
2023-01-13T12:43:10.684Z,11.9
2023-01-13T12:44:01.569Z,11.9
2023-01-13T12:45:10.707Z,11.9
2023-01-13T12:46:10.710Z,10.3
2023-01-13T12:47:00.830Z,10.3
2023-01-13T12:48:00.785Z,10.3
2023-01-13T12:49:00.930Z,10.3
2023-01-13T12:50:10.608Z,10.3
2023-01-13T12:51:00.994Z,10.3
2023-01-13T12:52:01.814Z,10.3
2023-01-13T12:53:10.629Z,10.3
2023-01-13T12:54:01.747Z,10.3
2023-01-13T12:55:01.780Z,10.3
2023-01-13T12:56:10.656Z,11.4
2023-01-13T12:57:10.673Z,11.4
2023-01-13T12:58:04.138Z,11.4
2023-01-13T12:59:10.647Z,11.4
2023-01-13T13:00:01.819Z,11.4
2023-01-13T13:01:10.142Z,11.4
2023-01-13T13:02:08.563Z,11.4
2023-01-13T13:03:10.663Z,11.4
2023-01-13T13:04:09.675Z,11.4
2023-01-13T13:05:10.632Z,11.4
2023-01-13T13:06:00.767Z,11.4
2023-01-13T13:07:10.807Z,9.3
2023-01-13T13:08:06.352Z,9.3
2023-01-13T13:09:04.064Z,9.3
2023-01-13T13:10:03.944Z,9.3
2023-01-13T13:11:01.795Z,9.3
2023-01-13T13:12:10.659Z,9.3
2023-01-13T13:13:02.183Z,9.3
2023-01-13T13:14:02.125Z,9.3
2023-01-13T13:15:03.557Z,9.3
2023-01-13T13:16:10.783Z,7.6
2023-01-13T13:17:00.800Z,7.6
2023-01-13T13:18:00.747Z,7.6
2023-01-13T13:19:10.664Z,7.6
2023-01-13T13:20:00.790Z,7.6
2023-01-13T13:21:08.421Z,7.6
2023-01-13T13:22:10.635Z,7.6
2023-01-13T13:23:00.812Z,7.6
2023-01-13T13:24:01.852Z,7.6
2023-01-13T13:25:03.426Z,7.6
2023-01-13T13:26:04.106Z,7.6
2023-01-13T13:27:10.631Z,7.8
2023-01-13T13:28:05.508Z,7.8
2023-01-13T13:29:10.649Z,7.8
2023-01-13T13:30:08.453Z,7.8
2023-01-13T13:31:07.853Z,7.8
2023-01-13T13:32:10.796Z,7.8
2023-01-13T13:33:08.140Z,7.8
2023-01-13T13:34:00.743Z,7.8
2023-01-13T13:35:10.798Z,7.8
2023-01-13T13:36:01.817Z,7.8
2023-01-13T13:37:00.735Z,6.5
2023-01-13T13:38:00.785Z,6.5
2023-01-13T13:39:01.782Z,6.5
2023-01-13T13:40:07.668Z,6.5
2023-01-13T13:41:04.605Z,6.5
2023-01-13T13:42:08.875Z,6.5